Time;durP1;ratioP1;P1;durP2;ratioP2;P2;SDS_P1;SDS_P2;PMS_P1;PMS_P2;Temp;Humidity;BMP_temperature;BMP_pressure;BME280_temperature;BME280_humidity;BME280_pressure;Samples;Min_cycle;Max_cycle;Signal;HPM_P1;HPM_P2
2021/10/06 00:01:45;;;;;;;4.03;1.50;;;;;;;;;;5018844;28;20053;-79
2021/10/06 00:04:11;;;;;;;3.85;1.60;;;;;;;;;;5018216;28;20046;-79
2021/10/06 00:06:38;;;;;;;3.97;1.60;;;;;;;;;;5018377;28;20054;-79
2021/10/06 00:09:06;;;;;;;3.20;1.52;;;;;;;;;;5016681;28;20049;-80
2021/10/06 00:11:34;;;;;;;4.35;1.50;;;;;;;;;;5015728;28;20096;-80
2021/10/06 00:14:00;;;;;;;3.80;1.60;;;;;;;;;;5015366;28;20057;-78
2021/10/06 00:16:27;;;;;;;4.32;1.58;;;;;;;;;;5015785;28;20461;-79
2021/10/06 00:18:56;;;;;;;3.97;1.67;;;;;;;;;;5016115;28;20046;-78
2021/10/06 00:21:22;;;;;;;3.15;1.38;;;;;;;;;;5015489;28;20057;-78
2021/10/06 00:23:49;;;;;;;5.47;1.70;;;;;;;;;;5015439;28;20065;-80
2021/10/06 00:26:16;;;;;;;3.47;1.30;;;;;;;;;;5015434;28;20057;-78
2021/10/06 00:28:43;;;;;;;3.55;1.40;;;;;;;;;;5015210;28;20046;-79
2021/10/06 00:31:10;;;;;;;4.25;1.50;;;;;;;;;;5014892;28;20481;-79
2021/10/06 00:33:37;;;;;;;3.35;1.40;;;;;;;;;;5015033;28;20100;-78
2021/10/06 00:36:05;;;;;;;3.42;1.75;;;;;;;;;;5015233;28;20089;-79
2021/10/06 00:38:32;;;;;;;3.75;1.63;;;;;;;;;;5015464;28;20049;-80
2021/10/06 00:40:59;;;;;;;3.85;1.48;;;;;;;;;;5015170;28;20053;-79
2021/10/06 00:43:26;;;;;;;4.15;1.48;;;;;;;;;;5015634;28;20060;-79
2021/10/06 00:45:52;;;;;;;3.75;1.52;;;;;;;;;;5015853;28;20100;-79
2021/10/06 00:48:19;;;;;;;4.22;1.90;;;;;;;;;;5015356;28;20101;-79
2021/10/06 00:50:46;;;;;;;3.47;1.33;;;;;;;;;;5015264;28;20524;-80
2021/10/06 00:53:15;;;;;;;3.20;1.40;;;;;;;;;;5014785;28;20401;-79
2021/10/06 00:55:42;;;;;;;3.63;1.35;;;;;;;;;;5021228;28;20511;-79
2021/10/06 00:58:09;;;;;;;3.80;1.52;;;;;;;;;;5035584;28;20581;-80
2021/10/06 01:00:36;;;;;;;5.03;1.50;;;;;;;;;;5036010;28;20522;-80
2021/10/06 01:03:03;;;;;;;3.55;1.70;;;;;;;;;;5035945;28;20050;-78
2021/10/06 01:05:31;;;;;;;2.92;1.40;;;;;;;;;;5034130;28;20527;-79
2021/10/06 01:07:59;;;;;;;2.15;1.30;;;;;;;;;;5034444;28;20136;-79
2021/10/06 01:10:27;;;;;;;4.10;1.45;;;;;;;;;;5035330;28;20053;-78
2021/10/06 01:12:55;;;;;;;3.10;1.50;;;;;;;;;;5034923;28;20045;-78
2021/10/06 01:15:22;;;;;;;4.90;1.40;;;;;;;;;;5034267;28;20542;-78
2021/10/06 01:17:49;;;;;;;4.03;1.58;;;;;;;;;;5034605;28;20057;-78
2021/10/06 01:20:16;;;;;;;4.47;2.45;;;;;;;;;;5033679;28;20061;-80
2021/10/06 01:22:45;;;;;;;3.55;1.65;;;;;;;;;;5035181;28;20057;-79
2021/10/06 01:25:14;;;;;;;4.85;1.70;;;;;;;;;;5034710;28;20045;-80
2021/10/06 01:27:42;;;;;;;3.37;1.40;;;;;;;;;;5034355;28;20049;-79
2021/10/06 01:30:13;;;;;;;5.22;1.40;;;;;;;;;;5034227;28;20049;-79
2021/10/06 01:32:42;;;;;;;2.92;1.33;;;;;;;;;;5034514;28;20049;-79
2021/10/06 01:35:11;;;;;;;4.78;1.70;;;;;;;;;;5034242;28;20061;-79
2021/10/06 01:37:38;;;;;;;4.88;1.42;;;;;;;;;;5034438;28;20060;-80
2021/10/06 01:40:09;;;;;;;2.38;1.20;;;;;;;;;;5034201;28;20060;-80
2021/10/06 01:42:35;;;;;;;;;;;;;;;;;;5034404;28;20119;-78
2021/10/06 01:45:02;;;;;;;4.25;1.25;;;;;;;;;;5033716;28;20276;-79
2021/10/06 01:47:29;;;;;;;3.88;1.40;;;;;;;;;;5033807;28;20049;-78
2021/10/06 01:49:56;;;;;;;4.03;1.40;;;;;;;;;;5033876;28;20107;-78
2021/10/06 01:52:25;;;;;;;3.10;1.42;;;;;;;;;;5034248;28;20111;-80
2021/10/06 01:54:53;;;;;;;4.22;1.45;;;;;;;;;;5033961;28;20057;-79
2021/10/06 01:57:22;;;;;;;6.30;1.52;;;;;;;;;;5015210;28;20424;-79
2021/10/06 01:59:50;;;;;;;4.57;1.33;;;;;;;;;;5012922;28;20402;-79
2021/10/06 02:02:18;;;;;;;3.88;1.58;;;;;;;;;;5014374;28;20049;-78
2021/10/06 02:04:44;;;;;;;5.25;1.73;;;;;;;;;;5013248;28;20049;-79
2021/10/06 02:07:12;;;;;;;4.57;1.50;;;;;;;;;;5014311;28;20046;-79
2021/10/06 02:09:38;;;;;;;3.28;1.50;;;;;;;;;;5013504;28;20050;-78
2021/10/06 02:12:07;;;;;;;3.58;1.65;;;;;;;;;;5013155;28;20057;-78
2021/10/06 02:14:36;;;;;;;3.75;1.50;;;;;;;;;;5013104;28;20050;-79
2021/10/06 02:17:03;;;;;;;3.42;1.40;;;;;;;;;;5013314;28;20132;-78
2021/10/06 02:19:30;;;;;;;4.28;1.40;;;;;;;;;;5012830;28;20054;-79
2021/10/06 02:21:56;;;;;;;2.80;1.20;;;;;;;;;;5012937;28;20065;-79
2021/10/06 02:24:23;;;;;;;4.90;1.55;;;;;;;;;;5013789;28;20060;-79
2021/10/06 02:26:50;;;;;;;4.00;1.50;;;;;;;;;;5014010;28;20096;-80
2021/10/06 02:29:17;;;;;;;3.97;1.42;;;;;;;;;;5014582;28;20053;-79
2021/10/06 02:31:45;;;;;;;4.47;1.70;;;;;;;;;;5014248;28;20073;-80
2021/10/06 02:34:12;;;;;;;3.17;1.30;;;;;;;;;;5016844;28;20050;-79
2021/10/06 02:36:39;;;;;;;3.15;1.40;;;;;;;;;;5021361;28;20061;-78
2021/10/06 02:39:06;;;;;;;4.63;1.80;;;;;;;;;;5029999;28;20049;-79
2021/10/06 02:41:33;;;;;;;6.43;1.67;;;;;;;;;;5037005;28;20038;-79
2021/10/06 02:43:59;;;;;;;3.35;1.38;;;;;;;;;;5037518;28;20046;-81
2021/10/06 02:46:26;;;;;;;4.53;1.52;;;;;;;;;;5037626;28;20065;-81
2021/10/06 02:48:54;;;;;;;2.88;1.10;;;;;;;;;;5023152;28;20073;-80
2021/10/06 02:51:22;;;;;;;2.92;1.27;;;;;;;;;;5016009;28;20052;-80
2021/10/06 02:53:48;;;;;;;4.72;1.45;;;;;;;;;;5014816;28;20057;-80
2021/10/06 02:56:16;;;;;;;5.10;1.67;;;;;;;;;;5024276;28;20053;-80
2021/10/06 02:58:43;;;;;;;3.15;1.38;;;;;;;;;;5037301;28;20052;-79
2021/10/06 03:01:10;;;;;;;6.72;1.77;;;;;;;;;;5038356;28;20061;-79
2021/10/06 03:03:36;;;;;;;3.45;1.70;;;;;;;;;;5037797;28;20049;-79
2021/10/06 03:06:05;;;;;;;5.43;1.50;;;;;;;;;;5037692;28;20045;-79
2021/10/06 03:08:32;;;;;;;2.78;1.40;;;;;;;;;;5037552;28;20049;-79
2021/10/06 03:10:59;;;;;;;6.85;1.95;;;;;;;;;;5037079;28;20059;-79
2021/10/06 03:13:26;;;;;;;4.57;1.42;;;;;;;;;;5036912;28;20045;-79
2021/10/06 03:15:54;;;;;;;3.88;1.60;;;;;;;;;;5037308;28;20081;-79
2021/10/06 03:18:21;;;;;;;3.35;1.52;;;;;;;;;;5036985;28;20045;-79
2021/10/06 03:20:47;;;;;;;2.88;1.58;;;;;;;;;;5036935;28;20080;-80
2021/10/06 03:23:16;;;;;;;4.03;1.35;;;;;;;;;;5036290;28;20054;-80
2021/10/06 03:25:42;;;;;;;6.10;1.70;;;;;;;;;;5036944;28;20107;-79
2021/10/06 03:28:09;;;;;;;3.72;1.60;;;;;;;;;;5036503;28;20119;-79
2021/10/06 03:30:36;;;;;;;3.85;0.93;;;;;;;;;;5036545;28;20060;-79
2021/10/06 03:33:04;;;;;;;3.75;1.50;;;;;;;;;;5036633;28;20057;-79
2021/10/06 03:35:31;;;;;;;2.45;1.27;;;;;;;;;;5036019;28;20412;-78
2021/10/06 03:37:58;;;;;;;4.80;1.30;;;;;;;;;;5036093;28;20046;-78
2021/10/06 03:40:27;;;;;;;3.20;1.20;;;;;;;;;;5035668;28;20517;-78
2021/10/06 03:42:53;;;;;;;3.33;1.27;;;;;;;;;;5036620;28;20052;-78
2021/10/06 03:45:20;;;;;;;9.82;3.28;;;;;;;;;;5035807;28;20496;-78
2021/10/06 03:47:47;;;;;;;4.75;1.30;;;;;;;;;;5036886;28;20047;-78
2021/10/06 03:50:17;;;;;;;5.03;1.50;;;;;;;;;;5035325;28;20049;-78
2021/10/06 03:52:45;;;;;;;5.60;1.50;;;;;;;;;;5036266;28;20113;-78
2021/10/06 03:55:12;;;;;;;9.60;2.83;;;;;;;;;;5042873;28;20049;-77
2021/10/06 03:57:40;;;;;;;3.58;1.58;;;;;;;;;;5043482;28;20088;-78
2021/10/06 04:00:09;;;;;;;5.53;1.50;;;;;;;;;;5049226;28;20479;-78
2021/10/06 04:02:36;;;;;;;3.90;1.55;;;;;;;;;;5047329;28;20120;-79
2021/10/06 04:05:03;;;;;;;3.17;1.42;;;;;;;;;;5040019;28;20049;-78
2021/10/06 04:07:30;;;;;;;6.70;1.70;;;;;;;;;;5035887;28;20052;-79
2021/10/06 04:09:56;;;;;;;4.35;1.42;;;;;;;;;;5035432;28;20054;-79
2021/10/06 04:12:23;;;;;;;4.38;1.20;;;;;;;;;;5035997;28;20049;-78
2021/10/06 04:14:51;;;;;;;6.05;1.70;;;;;;;;;;5038064;28;20080;-78
2021/10/06 04:17:18;;;;;;;3.42;1.35;;;;;;;;;;5038924;28;20041;-78
2021/10/06 04:19:45;;;;;;;3.72;1.40;;;;;;;;;;5037893;28;20061;-79
2021/10/06 04:22:12;;;;;;;7.85;3.22;;;;;;;;;;5035228;28;20049;-79
2021/10/06 04:24:39;;;;;;;11.45;3.35;;;;;;;;;;5035384;28;20497;-79
2021/10/06 04:27:05;;;;;;;6.13;3.17;;;;;;;;;;5034386;28;20060;-79
2021/10/06 04:29:32;;;;;;;4.13;1.55;;;;;;;;;;5035163;28;20045;-79
2021/10/06 04:32:01;;;;;;;4.80;1.80;;;;;;;;;;5035415;28;20423;-79
2021/10/06 04:34:28;;;;;;;4.38;1.80;;;;;;;;;;5035085;28;20059;-79
2021/10/06 04:36:54;;;;;;;5.38;1.52;;;;;;;;;;5036595;28;20489;-79
2021/10/06 04:39:21;;;;;;;7.10;1.80;;;;;;;;;;5038535;28;20127;-78
2021/10/06 04:41:48;;;;;;;6.30;1.80;;;;;;;;;;5038873;28;20045;-79
2021/10/06 04:44:16;;;;;;;6.72;2.72;;;;;;;;;;5037652;28;20045;-78
2021/10/06 04:46:43;;;;;;;5.25;2.42;;;;;;;;;;5036878;28;20066;-79
2021/10/06 04:49:11;;;;;;;4.53;1.88;;;;;;;;;;5035546;28;20053;-79
2021/10/06 04:51:38;;;;;;;3.60;1.83;;;;;;;;;;5035242;28;20045;-79
2021/10/06 04:54:05;;;;;;;7.50;2.67;;;;;;;;;;5036334;28;20046;-78
2021/10/06 04:56:32;;;;;;;2.85;1.60;;;;;;;;;;5024492;28;20050;-78
2021/10/06 04:58:58;;;;;;;6.57;1.80;;;;;;;;;;5022344;28;20109;-78
2021/10/06 05:01:26;;;;;;;6.88;1.88;;;;;;;;;;5023555;28;20049;-78
2021/10/06 05:03:53;;;;;;;4.95;1.77;;;;;;;;;;5024442;28;20042;-78
2021/10/06 05:06:21;;;;;;;5.22;2.10;;;;;;;;;;5021456;28;20113;-78
2021/10/06 05:08:49;;;;;;;4.88;2.30;;;;;;;;;;5020900;28;20129;-78
2021/10/06 05:11:16;;;;;;;6.47;2.38;;;;;;;;;;5019396;28;20136;-79
2021/10/06 05:13:43;;;;;;;5.68;2.10;;;;;;;;;;5019193;28;20056;-77
2021/10/06 05:16:09;;;;;;;4.32;1.90;;;;;;;;;;5018771;28;20057;-79
2021/10/06 05:18:36;;;;;;;5.30;1.92;;;;;;;;;;5017654;28;20045;-79
2021/10/06 05:21:03;;;;;;;6.03;2.20;;;;;;;;;;5020995;28;20476;-79
2021/10/06 05:23:31;;;;;;;6.22;2.88;;;;;;;;;;5023356;28;20457;-78
2021/10/06 05:25:58;;;;;;;6.70;2.67;;;;;;;;;;5020337;28;20413;-79
2021/10/06 05:28:25;;;;;;;8.57;3.40;;;;;;;;;;5018803;28;20050;-79
2021/10/06 05:30:55;;;;;;;6.80;3.00;;;;;;;;;;5018675;28;20053;-79
2021/10/06 05:33:22;;;;;;;5.32;2.80;;;;;;;;;;5017947;28;20405;-78
2021/10/06 05:35:49;;;;;;;7.80;3.15;;;;;;;;;;5018828;28;20050;-79
2021/10/06 05:38:15;;;;;;;4.80;2.10;;;;;;;;;;5018527;28;20120;-79
2021/10/06 05:40:44;;;;;;;6.85;2.45;;;;;;;;;;5018580;28;20057;-79
2021/10/06 05:43:11;;;;;;;6.43;2.00;;;;;;;;;;5017057;28;20549;-78
2021/10/06 05:45:38;;;;;;;7.05;2.40;;;;;;;;;;5018975;28;20148;-78
2021/10/06 05:48:06;;;;;;;6.95;1.92;;;;;;;;;;5019188;28;20053;-79
2021/10/06 05:50:33;;;;;;;6.47;2.05;;;;;;;;;;5027064;28;20040;-79
2021/10/06 05:53:00;;;;;;;5.35;2.00;;;;;;;;;;5032904;28;20077;-81
2021/10/06 05:55:27;;;;;;;7.63;2.30;;;;;;;;;;5037452;28;20041;-78
2021/10/06 05:57:55;;;;;;;7.47;2.30;;;;;;;;;;5034676;28;20073;-78
2021/10/06 06:00:22;;;;;;;4.20;2.13;;;;;;;;;;5021587;28;20054;-78
2021/10/06 06:02:49;;;;;;;3.22;1.52;;;;;;;;;;5018840;28;20052;-78
2021/10/06 06:05:17;;;;;;;5.65;1.70;;;;;;;;;;5015349;28;20124;-78
2021/10/06 06:07:44;;;;;;;3.70;1.40;;;;;;;;;;5014684;28;20583;-83
2021/10/06 06:10:12;;;;;;;7.05;1.70;;;;;;;;;;5017566;28;20493;-82
2021/10/06 06:12:42;;;;;;;3.83;1.60;;;;;;;;;;5018004;28;20050;-81
2021/10/06 06:15:11;;;;;;;5.13;1.73;;;;;;;;;;5019160;28;20048;-81
2021/10/06 06:17:38;;;;;;;3.45;1.35;;;;;;;;;;5020440;28;20298;-81
2021/10/06 06:20:08;;;;;;;8.15;2.00;;;;;;;;;;5019690;28;20123;-81
2021/10/06 06:22:35;;;;;;;5.32;1.40;;;;;;;;;;5018528;28;20049;-82
2021/10/06 06:25:03;;;;;;;3.22;1.38;;;;;;;;;;5016490;28;20049;-82
2021/10/06 06:27:30;;;;;;;9.05;4.00;;;;;;;;;;5016888;28;20046;-82
2021/10/06 06:29:56;;;;;;;12.60;5.32;;;;;;;;;;5017050;28;20072;-82
2021/10/06 06:32:25;;;;;;;4.90;1.60;;;;;;;;;;5021395;28;20555;-83
2021/10/06 06:34:51;;;;;;;2.67;1.33;;;;;;;;;;5022544;28;20148;-83
2021/10/06 06:37:18;;;;;;;4.78;1.50;;;;;;;;;;5025420;28;20050;-81
2021/10/06 06:39:45;;;;;;;7.68;2.25;;;;;;;;;;5032370;28;20050;-81
2021/10/06 06:42:12;;;;;;;7.82;2.03;;;;;;;;;;5029145;28;20077;-83
2021/10/06 06:44:39;;;;;;;4.85;1.45;;;;;;;;;;5023048;28;20460;-81
2021/10/06 06:47:05;;;;;;;5.97;1.73;;;;;;;;;;5023343;28;20050;-81
2021/10/06 06:49:34;;;;;;;4.43;1.35;;;;;;;;;;5026129;28;20060;-82
2021/10/06 06:52:01;;;;;;;3.70;1.48;;;;;;;;;;5026442;28;20065;-81
2021/10/06 06:54:28;;;;;;;4.90;1.80;;;;;;;;;;5024712;28;20048;-81
2021/10/06 06:56:55;;;;;;;4.57;1.73;;;;;;;;;;5036129;28;20045;-81
2021/10/06 06:59:22;;;;;;;5.60;1.50;;;;;;;;;;5042244;28;20492;-82
2021/10/06 07:01:49;;;;;;;3.03;1.40;;;;;;;;;;5042369;28;20049;-81
2021/10/06 07:04:16;;;;;;;3.00;1.38;;;;;;;;;;5043623;28;20045;-81
2021/10/06 07:06:44;;;;;;;3.97;1.30;;;;;;;;;;5043128;28;20076;-80
2021/10/06 07:09:12;;;;;;;5.25;1.60;;;;;;;;;;5047401;28;20045;-80
2021/10/06 07:11:39;;;;;;;4.20;1.45;;;;;;;;;;5041310;28;20046;-81
2021/10/06 07:14:06;;;;;;;5.15;2.25;;;;;;;;;;5040993;28;20340;-82
2021/10/06 07:16:33;;;;;;;4.50;1.90;;;;;;;;;;5042647;28;20076;-83
2021/10/06 07:18:59;;;;;;;4.88;1.70;;;;;;;;;;5043830;28;20046;-80
2021/10/06 07:21:26;;;;;;;5.80;1.77;;;;;;;;;;5044606;28;20515;-81
2021/10/06 07:23:55;;;;;;;5.60;2.70;;;;;;;;;;5046045;28;20471;-81
2021/10/06 07:26:22;;;;;;;6.05;1.98;;;;;;;;;;5045491;28;20049;-81
2021/10/06 07:28:49;;;;;;;4.43;1.55;;;;;;;;;;5050949;28;20049;-82
2021/10/06 07:31:16;;;;;;;3.83;1.98;;;;;;;;;;5046563;28;20049;-82
2021/10/06 07:33:44;;;;;;;4.50;1.60;;;;;;;;;;5041566;28;20056;-82
2021/10/06 07:36:11;;;;;;;6.88;1.98;;;;;;;;;;5041134;28;20085;-82
2021/10/06 07:38:38;;;;;;;4.38;1.60;;;;;;;;;;5043035;28;20493;-83
2021/10/06 07:41:06;;;;;;;3.70;1.40;;;;;;;;;;5047526;28;20049;-81
2021/10/06 07:43:33;;;;;;;4.15;1.50;;;;;;;;;;5043345;28;20071;-82
2021/10/06 07:46:00;;;;;;;4.03;1.50;;;;;;;;;;5037865;28;20057;-81
2021/10/06 07:48:27;;;;;;;10.50;5.10;;;;;;;;;;5043284;28;20057;-81
2021/10/06 07:50:54;;;;;;;11.02;5.28;;;;;;;;;;5039382;28;20053;-82
2021/10/06 07:53:21;;;;;;;5.20;2.00;;;;;;;;;;5042599;28;20061;-82
2021/10/06 07:55:48;;;;;;;3.88;1.73;;;;;;;;;;5036219;28;20045;-81
2021/10/06 07:58:16;;;;;;;5.13;1.65;;;;;;;;;;5021708;28;20053;-82
2021/10/06 08:00:43;;;;;;;5.20;2.03;;;;;;;;;;5021904;28;20046;-82
2021/10/06 08:03:10;;;;;;;4.30;1.60;;;;;;;;;;5022289;28;20046;-80
2021/10/06 08:05:36;;;;;;;3.67;1.50;;;;;;;;;;5024725;28;20054;-81
2021/10/06 08:08:04;;;;;;;5.13;2.15;;;;;;;;;;5028954;28;20056;-80
2021/10/06 08:10:32;;;;;;;7.22;2.40;;;;;;;;;;5023216;28;20050;-81
2021/10/06 08:13:00;;;;;;;5.60;1.70;;;;;;;;;;5023887;28;20049;-81
2021/10/06 08:15:28;;;;;;;3.88;1.50;;;;;;;;;;5023578;28;20045;-82
2021/10/06 08:17:55;;;;;;;11.38;3.67;;;;;;;;;;5023980;28;20049;-82
2021/10/06 08:20:22;;;;;;;5.38;1.75;;;;;;;;;;5024240;28;20053;-83
2021/10/06 08:22:49;;;;;;;15.98;8.60;;;;;;;;;;5022994;28;20053;-82
2021/10/06 08:25:16;;;;;;;10.63;4.75;;;;;;;;;;5023858;28;20336;-82
2021/10/06 08:27:43;;;;;;;4.28;2.10;;;;;;;;;;5024316;28;20046;-82
2021/10/06 08:30:11;;;;;;;5.35;1.83;;;;;;;;;;5027579;28;20061;-81
2021/10/06 08:32:42;;;;;;;5.25;2.03;;;;;;;;;;5028934;28;20049;-82
2021/10/06 08:35:09;;;;;;;5.60;1.80;;;;;;;;;;5026156;28;20056;-82
2021/10/06 08:37:36;;;;;;;5.07;1.80;;;;;;;;;;5025638;28;20111;-82
2021/10/06 08:40:04;;;;;;;9.18;2.53;;;;;;;;;;5026353;28;20058;-81
2021/10/06 08:42:32;;;;;;;8.70;2.05;;;;;;;;;;5024987;28;20065;-81
2021/10/06 08:45:01;;;;;;;5.32;1.60;;;;;;;;;;5024772;28;20058;-81
2021/10/06 08:47:28;;;;;;;3.88;1.73;;;;;;;;;;5023339;28;20054;-81
2021/10/06 08:49:58;;;;;;;6.50;1.80;;;;;;;;;;5021727;28;20050;-81
2021/10/06 08:52:25;;;;;;;5.97;2.35;;;;;;;;;;5030099;28;20058;-81
2021/10/06 08:54:52;;;;;;;9.23;3.28;;;;;;;;;;5023166;28;20078;-81
2021/10/06 08:57:20;;;;;;;3.80;1.40;;;;;;;;;;5018971;28;20472;-80
2021/10/06 08:59:47;;;;;;;4.22;1.25;;;;;;;;;;5026028;28;20049;-81
2021/10/06 09:02:15;;;;;;;5.25;1.30;;;;;;;;;;5038056;28;20060;-83
2021/10/06 09:04:43;;;;;;;5.43;1.70;;;;;;;;;;5038428;28;20060;-82
2021/10/06 09:07:11;;;;;;;5.32;1.42;;;;;;;;;;5038933;28;20034;-82
2021/10/06 09:09:39;;;;;;;5.03;1.70;;;;;;;;;;5023316;28;20054;-81
2021/10/06 09:12:10;;;;;;;4.65;1.20;;;;;;;;;;5019543;28;20205;-81
2021/10/06 09:14:40;;;;;;;4.13;1.20;;;;;;;;;;5018219;28;20054;-81
2021/10/06 09:17:09;;;;;;;5.72;1.70;;;;;;;;;;5017281;28;20077;-81
2021/10/06 09:19:38;;;;;;;4.75;1.50;;;;;;;;;;5017361;28;20053;-81
2021/10/06 09:22:06;;;;;;;5.90;2.20;;;;;;;;;;5020579;28;20060;-81
2021/10/06 09:27:29;;;;;;;7.05;3.45;;;;;;;;;;5143881;27;20862;-60
2021/10/06 09:29:58;;;;;;;6.57;1.50;;;;;;;;;;5110360;28;20433;-62
2021/10/06 09:32:28;;;;;;;5.95;2.28;;;;;;;;;;5110206;28;20079;-62
2021/10/06 09:35:03;;;;;;;5.20;1.60;;;;;;;;;;5110436;28;20047;-61
2021/10/06 09:37:30;;;;;;;7.10;2.15;;;;;;;;;;5110412;28;20051;-62
2021/10/06 09:39:58;;;;;;;3.13;1.40;;;;;;;;;;5110264;28;20052;-61
2021/10/06 09:42:26;;;;;;;8.98;2.13;;;;;;;;;;5110095;28;20066;-62
2021/10/06 09:44:55;;;;;;;4.60;1.25;;;;;;;;;;5109799;28;20062;-62
2021/10/06 09:47:23;;;;;;;4.15;2.08;;;;;;;;;;5109908;28;20412;-62
2021/10/06 09:49:55;;;;;;;9.70;1.63;;;;;;;;;;5110142;28;20055;-62
2021/10/06 09:52:23;;;;;;;4.72;2.20;;;;;;;;;;5109907;28;20052;-61
2021/10/06 09:54:52;;;;;;;4.97;1.63;;;;;;;;;;5109633;28;20043;-61
2021/10/06 09:57:29;;;;;;;5.53;1.70;;;;;;;;;;5109723;28;20511;-62
2021/10/06 09:59:57;;;;;;;5.38;1.80;;;;;;;;;;5109676;28;20074;-62
2021/10/06 10:02:26;;;;;;;4.63;1.77;;;;;;;;;;5109769;28;20052;-61
2021/10/06 10:04:54;;;;;;;4.55;1.85;;;;;;;;;;5109086;28;20116;-61
2021/10/06 10:07:22;;;;;;;7.75;1.88;;;;;;;;;;5109233;28;20056;-62
2021/10/06 10:09:49;;;;;;;6.95;1.90;;;;;;;;;;5109411;28;20051;-62
2021/10/06 10:12:19;;;;;;;3.83;1.75;;;;;;;;;;5109674;28;20048;-61
2021/10/06 10:14:48;;;;;;;2.72;1.17;;;;;;;;;;5109849;28;20048;-62
2021/10/06 10:17:15;;;;;;;3.22;1.35;;;;;;;;;;5109234;28;20074;-62
2021/10/06 10:19:44;;;;;;;4.55;1.60;;;;;;;;;;5109753;28;20048;-62
2021/10/06 10:22:12;;;;;;;5.43;1.58;;;;;;;;;;5109134;28;20047;-62
2021/10/06 10:24:50;;;;;;;4.25;1.70;;;;;;;;;;5109074;28;20040;-63
2021/10/06 10:27:19;;;;;;;4.50;1.48;;;;;;;;;;5128706;28;20043;-62
2021/10/06 10:29:50;;;;;;;3.65;1.40;;;;;;;;;;5130186;27;20047;-63
2021/10/06 10:32:19;;;;;;;5.43;2.00;;;;;;;;;;5129701;27;20047;-62
2021/10/06 10:35:05;;;;;;;5.88;1.60;;;;;;;;;;5129701;27;20503;-62
2021/10/06 10:38:20;;;;;;;5.45;1.95;;;;;;;;;;5122894;27;20062;-63
2021/10/06 10:40:53;;;;;;;8.82;2.80;;;;;;;;;;5115813;28;20406;-61
2021/10/06 10:43:22;;;;;;;4.50;1.63;;;;;;;;;;5115456;28;20069;-62
2021/10/06 10:46:12;;;;;;;4.38;1.48;;;;;;;;;;5115877;28;20511;-61
2021/10/06 10:49:04;;;;;;;4.05;1.75;;;;;;;;;;5109916;28;20060;-61
2021/10/06 10:51:49;;;;;;;5.38;1.52;;;;;;;;;;5115299;28;20070;-61
2021/10/06 10:54:32;;;;;;;3.35;1.10;;;;;;;;;;5115651;28;20507;-61
2021/10/06 10:57:06;;;;;;;3.83;1.38;;;;;;;;;;5115362;27;20051;-61
2021/10/06 10:59:42;;;;;;;3.80;1.10;;;;;;;;;;5115273;28;20044;-61
2021/10/06 11:02:18;;;;;;;5.15;1.45;;;;;;;;;;5115579;28;20101;-62
2021/10/06 11:04:46;;;;;;;4.65;1.30;;;;;;;;;;5115417;27;20048;-62
2021/10/06 11:07:17;;;;;;;5.60;1.60;;;;;;;;;;5115466;28;20093;-61
2021/10/06 11:09:49;;;;;;;;;;;;;;;;;;5115880;28;20409;-62
2021/10/06 11:12:41;;;;;;;4.32;1.58;;;;;;;;;;5115312;28;19943;-62
2021/10/06 11:15:27;;;;;;;13.88;6.22;;;;;;;;;;5114285;28;20051;-62
2021/10/06 11:18:27;;;;;;;7.05;2.13;;;;;;;;;;5115367;28;20504;-63
2021/10/06 11:20:58;;;;;;;4.95;1.95;;;;;;;;;;5115457;28;20055;-63
2021/10/06 11:23:40;;;;;;;;;;;;;;;;;;5115241;28;20047;-62
2021/10/06 11:26:10;;;;;;;3.47;1.20;;;;;;;;;;5114586;28;19926;-62
2021/10/06 11:28:38;;;;;;;5.07;1.30;;;;;;;;;;5114437;28;20138;-62
2021/10/06 11:31:05;;;;;;;2.80;1.50;;;;;;;;;;5114335;28;20054;-62
2021/10/06 11:33:34;;;;;;;11.23;4.75;;;;;;;;;;5114062;28;20047;-62
2021/10/06 11:36:24;;;;;;;5.38;2.78;;;;;;;;;;5114390;28;20077;-62
2021/10/06 11:38:55;;;;;;;4.20;1.08;;;;;;;;;;5110467;28;20105;-61
2021/10/06 11:41:22;;;;;;;3.03;0.98;;;;;;;;;;5114329;28;20070;-61
2021/10/06 11:43:51;;;;;;;3.47;0.98;;;;;;;;;;5114084;28;20518;-61
2021/10/06 11:46:22;;;;;;;4.28;1.20;;;;;;;;;;5113958;28;20058;-62
2021/10/06 11:48:52;;;;;;;3.85;1.52;;;;;;;;;;5113187;28;20058;-63
2021/10/06 11:51:23;;;;;;;10.32;3.70;;;;;;;;;;5114463;28;20051;-64
2021/10/06 11:53:51;;;;;;;9.85;3.13;;;;;;;;;;5113493;28;20053;-63
2021/10/06 11:56:25;;;;;;;7.38;2.40;;;;;;;;;;5114006;28;20047;-63
2021/10/06 11:58:52;;;;;;;7.68;2.50;;;;;;;;;;5113728;28;20043;-63
2021/10/06 12:01:20;;;;;;;9.18;3.50;;;;;;;;;;5113791;28;20052;-64
2021/10/06 12:03:47;;;;;;;6.15;2.80;;;;;;;;;;5113751;28;20051;-64
2021/10/06 12:06:20;;;;;;;6.20;2.28;;;;;;;;;;5113794;28;20048;-63
2021/10/06 12:08:48;;;;;;;4.63;1.58;;;;;;;;;;5113906;28;20407;-63
2021/10/06 12:11:17;;;;;;;4.78;1.60;;;;;;;;;;5114061;28;20050;-63
2021/10/06 12:13:44;;;;;;;6.75;1.33;;;;;;;;;;5113304;28;20116;-63
2021/10/06 12:16:25;;;;;;;4.45;1.40;;;;;;;;;;5113795;28;20065;-64
2021/10/06 12:18:58;;;;;;;4.50;1.42;;;;;;;;;;5113438;28;20051;-63
2021/10/06 12:21:28;;;;;;;3.15;1.42;;;;;;;;;;5113706;28;20075;-64
2021/10/06 12:23:59;;;;;;;3.88;1.35;;;;;;;;;;5113000;28;20138;-63
2021/10/06 12:26:31;;;;;;;5.78;1.40;;;;;;;;;;5113125;28;20073;-63
2021/10/06 12:29:02;;;;;;;6.45;2.28;;;;;;;;;;5113458;28;20152;-63
2021/10/06 12:31:32;;;;;;;4.05;1.40;;;;;;;;;;5113417;28;20059;-63
2021/10/06 12:34:11;;;;;;;3.47;1.20;;;;;;;;;;5113022;28;20077;-63
2021/10/06 12:36:47;;;;;;;3.70;1.10;;;;;;;;;;5113471;28;20233;-64
2021/10/06 12:39:18;;;;;;;4.05;1.55;;;;;;;;;;5113259;28;20051;-63
2021/10/06 12:41:51;;;;;;;5.78;1.02;;;;;;;;;;5113160;28;20487;-63
2021/10/06 12:44:32;;;;;;;4.43;1.20;;;;;;;;;;5113251;28;20505;-62
2021/10/06 12:47:01;;;;;;;5.13;1.30;;;;;;;;;;5113075;28;20053;-63
2021/10/06 12:49:29;;;;;;;4.57;1.30;;;;;;;;;;5113066;28;20569;-63
2021/10/06 12:52:01;;;;;;;3.65;0.90;;;;;;;;;;5112832;28;20047;-63
2021/10/06 12:54:30;;;;;;;5.88;1.30;;;;;;;;;;5112430;28;20127;-63
2021/10/06 12:57:00;;;;;;;6.78;1.38;;;;;;;;;;5112766;28;20054;-64
2021/10/06 12:59:37;;;;;;;5.15;1.35;;;;;;;;;;5113559;28;20366;-63
2021/10/06 13:02:05;;;;;;;2.80;1.23;;;;;;;;;;5112462;28;20050;-64
2021/10/06 13:04:33;;;;;;;7.85;1.50;;;;;;;;;;5112278;28;20511;-63
2021/10/06 13:07:02;;;;;;;4.63;1.42;;;;;;;;;;5112636;28;20080;-63
2021/10/06 13:09:29;;;;;;;4.47;1.30;;;;;;;;;;5112654;28;20043;-62
2021/10/06 13:11:57;;;;;;;3.70;1.33;;;;;;;;;;5112803;28;20044;-64
2021/10/06 13:14:24;;;;;;;3.97;1.42;;;;;;;;;;5112859;28;20047;-63
2021/10/06 13:16:53;;;;;;;3.97;1.27;;;;;;;;;;5113150;28;20051;-63
2021/10/06 13:19:21;;;;;;;3.05;1.30;;;;;;;;;;5112555;28;20047;-63
2021/10/06 13:21:52;;;;;;;2.88;1.05;;;;;;;;;;5112813;28;20142;-64
2021/10/06 13:24:22;;;;;;;3.95;1.02;;;;;;;;;;5112888;28;20063;-64
2021/10/06 13:26:49;;;;;;;5.85;1.98;;;;;;;;;;5112497;28;20054;-64
2021/10/06 13:29:17;;;;;;;5.72;1.50;;;;;;;;;;5112706;28;20127;-65
2021/10/06 13:31:45;;;;;;;6.13;1.70;;;;;;;;;;5112210;28;20405;-64
2021/10/06 13:34:13;;;;;;;4.85;1.50;;;;;;;;;;5112350;28;20048;-64
2021/10/06 13:36:40;;;;;;;6.20;1.42;;;;;;;;;;5112763;28;20048;-64
2021/10/06 13:39:08;;;;;;;5.50;1.25;;;;;;;;;;5112287;28;20130;-63
2021/10/06 13:41:37;;;;;;;4.38;1.67;;;;;;;;;;5112509;28;20053;-63
2021/10/06 13:44:04;;;;;;;4.78;1.50;;;;;;;;;;5112351;28;20044;-63
2021/10/06 13:46:32;;;;;;;4.40;1.20;;;;;;;;;;5112855;28;20542;-66
2021/10/06 13:49:00;;;;;;;5.90;1.60;;;;;;;;;;5112356;28;20048;-64
2021/10/06 13:51:28;;;;;;;5.93;1.70;;;;;;;;;;5112480;28;20039;-64
2021/10/06 13:53:56;;;;;;;5.28;1.60;;;;;;;;;;5111924;28;20052;-63
2021/10/06 13:56:24;;;;;;;3.03;1.42;;;;;;;;;;5112369;28;20489;-62
2021/10/06 13:58:52;;;;;;;4.75;1.35;;;;;;;;;;5112389;28;20399;-63
2021/10/06 14:01:20;;;;;;;4.20;1.50;;;;;;;;;;5112352;28;20096;-64
2021/10/06 14:03:48;;;;;;;4.93;1.30;;;;;;;;;;5112076;28;20054;-63
2021/10/06 14:06:15;;;;;;;4.88;1.38;;;;;;;;;;5112505;28;20139;-64
2021/10/06 14:08:42;;;;;;;4.28;1.17;;;;;;;;;;5112091;28;20382;-63
2021/10/06 14:11:09;;;;;;;4.97;1.23;;;;;;;;;;5112082;28;20040;-63
2021/10/06 14:13:37;;;;;;;5.15;1.30;;;;;;;;;;5114791;28;20056;-63
2021/10/06 14:16:06;;;;;;;5.05;1.40;;;;;;;;;;5116760;27;20058;-64
2021/10/06 14:18:33;;;;;;;4.30;1.10;;;;;;;;;;5116290;28;20124;-63
2021/10/06 14:21:01;;;;;;;3.53;1.10;;;;;;;;;;5116191;28;20050;-65
2021/10/06 14:23:28;;;;;;;4.40;1.45;;;;;;;;;;5115944;28;20130;-63
2021/10/06 14:25:56;;;;;;;4.28;1.35;;;;;;;;;;5115548;28;20094;-64
2021/10/06 14:28:24;;;;;;;2.95;1.35;;;;;;;;;;5115920;28;20072;-63
2021/10/06 14:30:51;;;;;;;8.45;1.33;;;;;;;;;;5115889;28;20072;-64
2021/10/06 14:33:20;;;;;;;4.35;1.30;;;;;;;;;;5115387;28;20044;-63
2021/10/06 14:35:47;;;;;;;3.92;1.08;;;;;;;;;;5115780;28;20474;-63
2021/10/06 14:38:14;;;;;;;8.43;2.78;;;;;;;;;;5115633;28;20051;-63
2021/10/06 14:40:42;;;;;;;11.73;4.50;;;;;;;;;;5115386;27;20056;-64
2021/10/06 14:43:09;;;;;;;6.68;3.80;;;;;;;;;;5115741;28;20054;-63
2021/10/06 14:45:36;;;;;;;4.75;1.85;;;;;;;;;;5115533;28;20044;-64
2021/10/06 14:48:03;;;;;;;3.05;1.20;;;;;;;;;;5115563;27;20139;-63
2021/10/06 14:50:31;;;;;;;3.38;1.10;;;;;;;;;;5115261;28;20131;-64
2021/10/06 14:52:58;;;;;;;2.92;1.00;;;;;;;;;;5115609;28;20421;-64
2021/10/06 14:55:26;;;;;;;4.35;1.30;;;;;;;;;;5114771;28;20100;-63